Time;durP1;ratioP1;P1;durP2;ratioP2;P2;SDS_P1;SDS_P2;PMS_P1;PMS_P2;Temp;Humidity;BMP_temperature;BMP_pressure;BME280_temperature;BME280_humidity;BME280_pressure;Samples;Min_cycle;Max_cycle;Signal;HPM_P1;HPM_P2
2021/08/01 00:01:29;;;;;;;3.97;3.67;;;20.00;98.70;;;;;;6138782;23;20462;-89
2021/08/01 00:04:05;;;;;;;4.37;3.70;;;20.00;98.80;;;;;;6162828;23;20416;-86
2021/08/01 00:07:31;;;;;;;5.67;4.30;;;20.00;98.90;;;;;;6052068;23;20434;-88
2021/08/01 00:13:48;;;;;;;5.33;4.10;;;20.00;99.00;;;;;;6101969;23;20449;-87
2021/08/01 00:16:34;;;;;;;5.70;4.77;;;20.00;99.10;;;;;;6106227;23;20436;-87
2021/08/01 00:23:32;;;;;;;5.50;3.80;;;19.90;99.10;;;;;;6093534;23;20414;-89
2021/08/01 00:26:44;;;;;;;3.63;3.20;;;19.90;99.30;;;;;;6091348;23;20397;-89
2021/08/01 00:29:53;;;;;;;3.40;3.10;;;19.80;99.40;;;;;;6023864;23;20450;-86
2021/08/01 00:32:45;;;;;;;3.47;3.17;;;19.80;99.40;;;;;;6020749;23;20859;-87
2021/08/01 00:35:46;;;;;;;3.33;2.40;;;19.70;99.40;;;;;;6022885;23;20489;-88
2021/08/01 00:38:34;;;;;;;4.53;3.20;;;19.70;99.40;;;;;;6023080;23;20429;-87
2021/08/01 00:41:10;;;;;;;2.70;2.47;;;19.70;99.50;;;;;;6029654;23;20436;-89
2021/08/01 00:44:05;;;;;;;3.30;2.90;;;19.70;99.50;;;;;;6034085;23;20402;-91
2021/08/01 00:47:23;;;;;;;3.77;3.43;;;19.70;99.50;;;;;;6042991;23;20455;-88
2021/08/01 00:50:18;;;;;;;3.90;3.50;;;19.70;99.40;;;;;;6048850;23;20466;-86
2021/08/01 00:52:58;;;;;;;3.10;2.80;;;19.70;99.40;;;;;;6025462;23;20489;-89
2021/08/01 00:58:57;;;;;;;2.90;2.70;;;19.70;99.30;;;;;;6049054;23;20783;-88
2021/08/01 01:02:20;;;;;;;4.57;2.87;;;19.70;99.30;;;;;;6094027;23;20437;-87
2021/08/01 01:05:47;;;;;;;3.40;2.70;;;19.60;99.30;;;;;;6087678;23;20404;-89
2021/08/01 01:08:57;;;;;;;3.00;2.53;;;19.50;99.50;;;;;;6102548;23;20460;-90
2021/08/01 01:11:42;;;;;;;4.00;2.80;;;19.50;99.70;;;;;;6117688;23;20441;-89
2021/08/01 01:14:27;;;;;;;4.43;2.70;;;19.40;99.70;;;;;;6114802;23;20473;-88
2021/08/01 01:17:16;;;;;;;3.40;3.10;;;19.50;99.70;;;;;;6107160;23;20411;-87
2021/08/01 01:20:36;;;;;;;4.80;2.83;;;19.40;99.60;;;;;;6110239;23;20444;-90
2021/08/01 01:23:25;;;;;;;4.03;2.90;;;19.50;99.80;;;;;;6111240;23;20416;-89
2021/08/01 01:26:52;;;;;;;5.03;3.03;;;19.50;99.80;;;;;;6023882;23;20425;-90
2021/08/01 01:30:15;;;;;;;5.00;3.63;;;19.40;99.70;;;;;;6133398;23;20439;-89
2021/08/01 01:33:20;;;;;;;4.43;3.30;;;19.40;99.80;;;;;;6119441;23;20404;-89
2021/08/01 01:36:40;;;;;;;3.70;3.40;;;19.40;99.90;;;;;;6119604;23;20400;-90
2021/08/01 01:39:26;;;;;;;5.77;3.07;;;19.40;99.90;;;;;;6011654;23;20443;-89
2021/08/01 01:42:02;;;;;;;4.13;3.73;;;19.40;99.90;;;;;;5996708;23;20524;-86
2021/08/01 01:45:18;;;;;;;3.27;2.97;;;19.40;99.90;;;;;;5998712;23;20423;-87
2021/08/01 01:48:22;;;;;;;5.87;3.50;;;19.70;99.90;;;;;;6105508;23;20472;-87
2021/08/01 01:51:23;;;;;;;4.10;3.40;;;20.00;98.60;;;;;;6102623;23;20436;-88
2021/08/01 01:54:25;;;;;;;5.50;3.30;;;19.80;99.00;;;;;;6103684;23;20919;-86
2021/08/01 01:57:24;;;;;;;4.53;3.60;;;19.70;99.00;;;;;;6120288;23;20439;-89
2021/08/01 02:00:31;;;;;;;7.00;4.07;;;19.90;99.00;;;;;;6115086;23;20429;-89
2021/08/01 02:03:32;;;;;;;5.83;3.20;;;19.70;98.90;;;;;;6069396;23;20437;-91
2021/08/01 02:09:01;;;;;;;;;;;;;;;;;;;;;
2021/08/01 02:12:49;;;;;;;4.83;3.60;;;19.20;99.90;;;;;;6177963;23;20391;-91
2021/08/01 02:16:04;;;;;;;5.47;3.33;;;19.20;99.90;;;;;;6143623;23;20402;-90
2021/08/01 02:21:34;;;;;;;4.40;4.00;;;19.20;99.90;;;;;;6168186;23;20450;-90
2021/08/01 02:24:15;;;;;;;6.00;3.37;;;19.20;99.90;;;;;;6176121;23;20477;-90
2021/08/01 02:27:11;;;;;;;3.23;2.93;;;19.20;99.90;;;;;;6174861;23;20415;-91
2021/08/01 02:29:48;;;;;;;4.00;3.30;;;19.30;99.90;;;;;;6177084;23;20441;-91
2021/08/01 02:32:40;;;;;;;3.63;3.20;;;19.30;99.90;;;;;;6178807;23;20884;-91
2021/08/01 02:35:10;;;;;;;4.20;3.20;;;19.30;99.90;;;;;;6177067;23;20495;-90
2021/08/01 02:37:38;;;;;;;3.43;3.20;;;19.30;99.90;;;;;;6159011;23;20450;-90
2021/08/01 02:40:05;;;;;;;3.53;3.17;;;19.20;99.90;;;;;;6159147;23;20434;-90
2021/08/01 02:42:34;;;;;;;3.60;3.30;;;19.20;99.90;;;;;;6161168;23;20411;-90
2021/08/01 02:45:02;;;;;;;3.67;2.93;;;19.20;99.90;;;;;;6160282;23;20497;-90
2021/08/01 02:47:32;;;;;;;4.20;3.07;;;19.10;99.90;;;;;;6161048;23;20741;-90
2021/08/01 02:50:04;;;;;;;3.63;3.33;;;19.10;99.90;;;;;;6170963;23;20563;-91
2021/08/01 02:52:47;;;;;;;2.80;2.47;;;19.00;99.90;;;;;;6172436;23;20783;-90
2021/08/01 02:55:17;;;;;;;3.70;2.90;;;19.00;99.90;;;;;;6160327;23;20411;-90
2021/08/01 02:57:47;;;;;;;6.37;3.40;;;19.00;99.90;;;;;;6159862;23;20482;-90
2021/08/01 03:00:15;;;;;;;5.33;3.57;;;19.00;99.90;;;;;;6160216;23;20434;-88
2021/08/01 03:02:42;;;;;;;4.67;3.87;;;19.00;99.90;;;;;;6157824;23;20441;-88
2021/08/01 03:05:10;;;;;;;3.63;3.33;;;18.90;99.90;;;;;;6160840;23;20441;-91
2021/08/01 03:07:39;;;;;;;3.63;3.17;;;18.90;99.90;;;;;;6162333;23;20442;-91
2021/08/01 03:10:07;;;;;;;4.90;3.57;;;19.00;99.90;;;;;;6160817;23;20474;-88
2021/08/01 03:12:41;;;;;;;3.90;3.40;;;18.90;99.90;;;;;;6160862;23;20406;-89
2021/08/01 03:15:09;;;;;;;3.57;3.30;;;18.90;99.90;;;;;;6159612;23;20410;-90
2021/08/01 03:17:37;;;;;;;3.73;3.40;;;18.90;99.90;;;;;;6159684;23;20415;-90
2021/08/01 03:20:06;;;;;;;5.07;3.90;;;18.90;99.90;;;;;;6158948;23;20442;-89
2021/08/01 03:22:34;;;;;;;3.87;3.17;;;18.90;99.90;;;;;;6158587;23;20463;-90
2021/08/01 03:25:03;;;;;;;4.30;3.50;;;18.90;99.90;;;;;;6158728;23;20417;-90
2021/08/01 03:27:31;;;;;;;4.57;3.60;;;18.90;99.90;;;;;;6159200;23;20410;-89
2021/08/01 03:29:59;;;;;;;3.53;3.23;;;18.90;99.90;;;;;;6158682;23;20447;-89
2021/08/01 03:32:26;;;;;;;4.70;4.00;;;18.90;99.90;;;;;;6158367;23;20449;-89
2021/08/01 03:34:53;;;;;;;3.97;3.57;;;18.90;99.90;;;;;;6159007;23;20951;-89
2021/08/01 03:37:27;;;;;;;4.27;3.87;;;18.90;99.90;;;;;;6159011;23;20406;-90
2021/08/01 03:39:55;;;;;;;4.10;3.67;;;18.90;99.90;;;;;;6159078;23;20490;-90
2021/08/01 03:42:23;;;;;;;5.93;3.83;;;18.90;99.90;;;;;;6158370;23;20446;-90
2021/08/01 03:44:50;;;;;;;4.00;3.60;;;18.90;99.90;;;;;;6158440;23;20940;-90
2021/08/01 03:47:17;;;;;;;5.93;4.20;;;18.80;99.90;;;;;;6156916;23;20962;-90
2021/08/01 03:49:47;;;;;;;5.27;4.07;;;18.80;99.90;;;;;;6158271;23;20533;-90
2021/08/01 03:52:17;;;;;;;4.43;3.43;;;18.80;99.90;;;;;;6163450;23;20395;-94
2021/08/01 03:54:45;;;;;;;4.43;3.93;;;18.80;99.90;;;;;;6172110;23;20431;-90
2021/08/01 03:57:13;;;;;;;4.07;3.23;;;18.80;99.90;;;;;;6158960;23;20414;-90
2021/08/01 03:59:41;;;;;;;4.73;4.20;;;18.80;99.90;;;;;;6159901;23;20855;-89
2021/08/01 04:02:08;;;;;;;3.70;3.40;;;18.80;99.90;;;;;;6158466;23;20412;-87
2021/08/01 04:04:35;;;;;;;5.17;3.83;;;18.80;99.90;;;;;;6160861;23;20422;-87
2021/08/01 04:07:03;;;;;;;4.40;4.00;;;18.70;99.90;;;;;;6158818;23;20423;-91
2021/08/01 04:09:30;;;;;;;4.70;4.30;;;18.70;99.90;;;;;;6157873;23;20481;-89
2021/08/01 04:11:57;;;;;;;4.20;3.90;;;18.70;99.90;;;;;;6158848;23;20788;-90
2021/08/01 04:14:25;;;;;;;4.60;4.13;;;18.70;99.90;;;;;;6159176;23;20469;-90
2021/08/01 04:16:53;;;;;;;9.20;3.73;;;18.70;99.90;;;;;;6157819;23;20731;-91
2021/08/01 04:19:20;;;;;;;5.50;4.70;;;18.70;99.90;;;;;;6158228;23;20442;-90
2021/08/01 04:21:47;;;;;;;5.23;4.60;;;18.60;99.90;;;;;;6133906;23;20418;-89
2021/08/01 04:24:14;;;;;;;4.63;3.97;;;18.60;99.90;;;;;;6147993;23;20398;-91
2021/08/01 04:26:44;;;;;;;4.70;4.17;;;18.60;99.90;;;;;;6158394;23;20402;-91
2021/08/01 04:29:12;;;;;;;7.47;4.40;;;18.60;99.90;;;;;;6155317;23;20447;-90
2021/08/01 04:31:40;;;;;;;4.50;4.10;;;18.60;99.90;;;;;;6156882;23;20442;-89
2021/08/01 04:34:07;;;;;;;8.63;5.03;;;18.60;99.90;;;;;;6156885;23;20406;-91
2021/08/01 04:36:34;;;;;;;7.50;5.43;;;18.60;99.90;;;;;;6155566;23;20466;-92
2021/08/01 04:39:01;;;;;;;5.70;4.70;;;18.70;99.90;;;;;;6154760;23;20430;-92
2021/08/01 04:41:28;;;;;;;7.43;4.60;;;18.60;99.90;;;;;;6146970;23;20411;-90
2021/08/01 04:43:56;;;;;;;5.33;4.80;;;18.60;99.90;;;;;;6137944;23;20415;-90
2021/08/01 04:46:23;;;;;;;5.13;4.73;;;18.70;99.90;;;;;;6136939;23;20462;-90
2021/08/01 04:48:51;;;;;;;6.13;5.30;;;18.70;99.90;;;;;;6135856;23;20443;-90
2021/08/01 04:51:18;;;;;;;5.80;4.93;;;18.60;99.90;;;;;;6137171;23;20407;-89
2021/08/01 04:53:47;;;;;;;6.90;5.40;;;18.60;99.90;;;;;;6139571;23;20474;-90
2021/08/01 04:56:14;;;;;;;4.77;4.27;;;18.60;99.90;;;;;;6140721;23;20485;-89
2021/08/01 04:58:44;;;;;;;4.80;4.13;;;18.70;99.90;;;;;;6135390;23;20415;-90
2021/08/01 05:01:13;;;;;;;5.40;4.07;;;18.70;99.90;;;;;;6135698;23;20437;-90
2021/08/01 05:03:43;;;;;;;7.70;5.13;;;18.80;99.90;;;;;;6135837;23;20411;-90
2021/08/01 05:06:10;;;;;;;5.40;4.40;;;18.70;99.90;;;;;;6134133;23;20434;-89
2021/08/01 05:08:38;;;;;;;5.47;4.20;;;18.70;99.90;;;;;;6160350;23;20421;-89
2021/08/01 05:11:07;;;;;;;5.50;4.80;;;18.70;99.90;;;;;;6135152;23;20413;-89
2021/08/01 05:13:34;;;;;;;7.73;4.23;;;18.60;99.90;;;;;;6133967;23;20415;-89
2021/08/01 05:16:02;;;;;;;6.57;5.13;;;18.60;99.90;;;;;;6133988;23;20403;-88
2021/08/01 05:18:29;;;;;;;5.57;4.50;;;18.60;99.90;;;;;;6133130;23;20415;-89
2021/08/01 05:20:57;;;;;;;4.90;4.50;;;18.60;99.90;;;;;;6153693;23;20450;-89
2021/08/01 05:23:25;;;;;;;5.30;4.43;;;18.60;99.90;;;;;;6158763;23;20419;-89
2021/08/01 05:25:52;;;;;;;7.87;4.17;;;18.50;99.90;;;;;;6158771;23;20419;-90
2021/08/01 05:28:20;;;;;;;4.53;3.50;;;18.50;99.90;;;;;;6158843;23;20422;-89
2021/08/01 05:30:47;;;;;;;4.93;3.90;;;18.50;99.90;;;;;;6158914;23;20529;-89
2021/08/01 05:33:15;;;;;;;5.80;3.70;;;18.50;99.90;;;;;;6158974;23;20415;-89
2021/08/01 05:35:46;;;;;;;4.50;4.10;;;18.50;99.90;;;;;;6158380;23;20486;-91
2021/08/01 05:38:14;;;;;;;4.97;3.70;;;18.50;99.90;;;;;;6162596;23;20483;-89
2021/08/01 05:40:44;;;;;;;5.20;4.10;;;18.40;99.90;;;;;;6163476;23;20446;-89
2021/08/01 05:43:15;;;;;;;5.10;3.80;;;18.40;99.90;;;;;;6163496;23;20410;-89
2021/08/01 05:45:46;;;;;;;5.53;4.10;;;18.40;99.90;;;;;;6164602;23;20529;-90
2021/08/01 05:48:18;;;;;;;7.30;3.70;;;18.40;99.90;;;;;;6171415;23;20429;-89
2021/08/01 05:50:50;;;;;;;4.90;3.77;;;18.50;99.90;;;;;;6175291;23;20442;-90
2021/08/01 05:53:20;;;;;;;5.67;4.00;;;18.50;99.90;;;;;;6179201;23;20406;-92
2021/08/01 05:55:51;;;;;;;11.30;4.40;;;18.60;99.90;;;;;;6178407;23;20403;-91
2021/08/01 05:58:20;;;;;;;6.63;4.20;;;18.60;99.90;;;;;;6172322;23;20415;-90
2021/08/01 06:00:47;;;;;;;6.50;3.63;;;18.60;99.90;;;;;;6165166;23;20434;-90
2021/08/01 06:03:15;;;;;;;6.60;4.03;;;18.60;99.90;;;;;;6165049;23;20434;-89
2021/08/01 06:05:44;;;;;;;5.90;4.20;;;18.60;99.90;;;;;;6165566;23;20450;-90
2021/08/01 06:08:11;;;;;;;6.07;4.00;;;18.70;99.90;;;;;;6177428;23;20466;-90
2021/08/01 06:10:39;;;;;;;7.80;4.33;;;18.70;99.90;;;;;;6178265;23;20443;-90
2021/08/01 06:13:06;;;;;;;8.77;4.33;;;18.70;99.90;;;;;;6179205;23;20441;-90
2021/08/01 06:15:34;;;;;;;6.63;5.13;;;18.80;99.90;;;;;;6178307;23;20462;-91
2021/08/01 06:18:02;;;;;;;6.77;4.30;;;18.70;99.90;;;;;;6163815;23;20421;-89
2021/08/01 06:20:29;;;;;;;5.80;4.93;;;18.80;99.90;;;;;;6164766;23;20450;-88
2021/08/01 06:22:57;;;;;;;7.33;5.33;;;19.20;99.90;;;;;;6136942;23;20445;-90
2021/08/01 06:25:25;;;;;;;4.93;4.50;;;19.10;99.90;;;;;;6136436;23;20498;-89
2021/08/01 06:27:51;;;;;;;7.33;4.50;;;19.00;99.90;;;;;;6161027;23;20415;-90
2021/08/01 06:30:18;;;;;;;6.83;4.60;;;19.10;99.90;;;;;;6161252;23;20465;-90
2021/08/01 06:32:45;;;;;;;7.67;4.23;;;19.10;99.90;;;;;;6135728;23;20438;-90
2021/08/01 06:35:15;;;;;;;9.33;4.03;;;19.20;99.90;;;;;;6161221;23;20465;-90
2021/08/01 06:37:42;;;;;;;5.70;4.37;;;19.50;99.90;;;;;;6135803;23;20426;-90
2021/08/01 06:40:12;;;;;;;5.13;4.30;;;19.40;99.50;;;;;;6135118;23;20525;-89
2021/08/01 06:42:39;;;;;;;6.37;4.43;;;19.40;99.80;;;;;;6135298;23;20411;-88
2021/08/01 06:45:06;;;;;;;6.03;4.73;;;19.80;99.10;;;;;;6134266;23;20418;-89
2021/08/01 06:47:33;;;;;;;4.80;3.63;;;19.60;98.90;;;;;;6134948;23;20421;-89
2021/08/01 06:50:00;;;;;;;8.37;4.07;;;19.60;99.30;;;;;;6133659;23;20973;-89
2021/08/01 06:52:36;;;;;;;3.87;3.57;;;19.50;98.90;;;;;;6136413;23;20481;-88
2021/08/01 06:55:05;;;;;;;5.23;3.90;;;19.40;99.10;;;;;;6135776;23;20897;-90
2021/08/01 06:57:32;;;;;;;6.47;4.57;;;19.50;99.30;;;;;;6134844;23;20411;-89
2021/08/01 06:59:59;;;;;;;7.97;4.00;;;19.70;99.00;;;;;;6135550;23;20442;-89
2021/08/01 07:02:26;;;;;;;7.70;3.77;;;19.80;98.50;;;;;;6136268;23;20501;-90
2021/08/01 07:04:53;;;;;;;7.43;3.77;;;19.80;98.20;;;;;;6163051;23;20470;-89
2021/08/01 07:07:20;;;;;;;5.07;3.20;;;19.80;98.30;;;;;;6135025;23;20556;-90
2021/08/01 07:09:47;;;;;;;6.20;4.20;;;19.90;98.30;;;;;;6134869;23;20443;-90
2021/08/01 07:12:15;;;;;;;10.03;4.60;;;20.00;97.80;;;;;;6133539;23;20417;-90
2021/08/01 07:14:43;;;;;;;5.77;3.80;;;20.00;97.60;;;;;;6133783;23;20439;-90
2021/08/01 07:17:10;;;;;;;6.83;4.33;;;19.90;97.60;;;;;;6134351;23;20407;-89
2021/08/01 07:19:39;;;;;;;6.40;4.10;;;20.00;97.80;;;;;;6161128;23;20446;-88
2021/08/01 07:22:06;;;;;;;4.87;4.40;;;20.80;96.70;;;;;;6138819;23;20411;-90
2021/08/01 07:24:33;;;;;;;5.57;4.33;;;20.80;96.30;;;;;;6138176;23;20419;-91
2021/08/01 07:27:00;;;;;;;7.17;3.53;;;20.60;96.30;;;;;;6160962;23;20494;-89
2021/08/01 07:29:30;;;;;;;4.70;3.20;;;20.80;95.70;;;;;;6140862;23;20902;-90
2021/08/01 07:31:58;;;;;;;5.33;3.67;;;20.50;96.00;;;;;;6170265;23;20429;-88
2021/08/01 07:34:33;;;;;;;6.00;3.70;;;21.00;95.90;;;;;;6140087;23;20415;-89
2021/08/01 07:37:03;;;;;;;6.53;3.57;;;21.30;94.80;;;;;;6141018;23;20474;-89
2021/08/01 07:39:30;;;;;;;4.90;3.37;;;20.90;95.20;;;;;;6151318;23;20466;-89
2021/08/01 07:42:00;;;;;;;3.73;3.43;;;20.70;95.60;;;;;;6151306;23;20500;-88
2021/08/01 07:44:29;;;;;;;5.37;3.13;;;21.00;95.30;;;;;;6142753;23;20415;-89
2021/08/01 07:46:56;;;;;;;7.50;2.80;;;21.00;94.80;;;;;;6138644;23;20414;-89
2021/08/01 07:49:23;;;;;;;4.70;2.80;;;21.10;94.80;;;;;;6137293;23;20434;-90
2021/08/01 07:51:50;;;;;;;2.50;2.30;;;22.70;91.90;;;;;;6136867;23;20459;-89
2021/08/01 07:54:17;;;;;;;4.07;2.83;;;22.50;91.20;;;;;;6137426;23;20431;-89
2021/08/01 07:56:45;;;;;;;2.80;2.60;;;22.10;91.80;;;;;;6161667;23;20872;-89
2021/08/01 07:59:12;;;;;;;2.77;2.47;;;23.00;91.00;;;;;;6134531;23;20505;-89
2021/08/01 08:01:39;;;;;;;2.93;2.20;;;24.00;86.90;;;;;;6133057;23;20435;-90
2021/08/01 08:04:07;;;;;;;3.60;2.57;;;24.40;84.10;;;;;;6135015;23;20894;-90
2021/08/01 08:06:34;;;;;;;4.33;2.37;;;23.90;84.70;;;;;;6135376;23;20463;-88
2021/08/01 08:09:02;;;;;;;3.60;2.10;;;24.80;82.70;;;;;;6161308;23;20441;-89
2021/08/01 08:11:31;;;;;;;5.30;2.50;;;25.60;76.90;;;;;;6135890;23;20469;-90
2021/08/01 08:14:01;;;;;;;3.53;2.70;;;25.40;75.90;;;;;;6136532;23;20461;-89
2021/08/01 08:16:29;;;;;;;3.20;2.07;;;24.90;76.90;;;;;;6134794;23;20501;-90
2021/08/01 08:18:56;;;;;;;2.10;1.90;;;26.80;72.80;;;;;;6135547;23;20414;-90
2021/08/01 08:21:26;;;;;;;3.30;2.43;;;29.40;62.20;;;;;;6134563;23;20407;-89
2021/08/01 08:23:53;;;;;;;2.80;2.23;;;30.80;56.80;;;;;;6134795;23;20411;-88
2021/08/01 08:26:20;;;;;;;2.70;2.40;;;31.80;53.30;;;;;;6137449;23;20470;-90
2021/08/01 08:28:49;;;;;;;3.77;2.43;;;31.70;52.10;;;;;;6160609;23;20759;-90
2021/08/01 08:31:15;;;;;;;2.40;2.10;;;31.60;52.20;;;;;;6136831;23;20517;-89
2021/08/01 08:33:43;;;;;;;3.37;1.90;;;31.30;50.90;;;;;;6160609;23;20430;-91
2021/08/01 08:36:10;;;;;;;2.30;2.10;;;30.00;52.50;;;;;;6134979;23;20415;-90
2021/08/01 08:38:37;;;;;;;2.53;2.33;;;27.90;55.40;;;;;;6161596;23;20431;-90
2021/08/01 08:41:05;;;;;;;5.83;2.47;;;26.20;59.00;;;;;;6134109;23;20422;-90
2021/08/01 08:43:33;;;;;;;3.13;2.30;;;25.10;62.90;;;;;;6136600;23;20726;-90
2021/08/01 08:46:01;;;;;;;2.20;2.10;;;24.30;67.30;;;;;;6135431;23;20437;-89
2021/08/01 08:48:32;;;;;;;2.27;2.07;;;23.50;70.60;;;;;;6134655;23;20465;-89
2021/08/01 08:51:00;;;;;;;2.40;2.07;;;23.00;72.50;;;;;;6161365;23;20447;-89
2021/08/01 08:53:28;;;;;;;2.20;2.00;;;22.70;75.00;;;;;;6137613;23;20417;-88
2021/08/01 08:55:55;;;;;;;3.67;2.17;;;22.50;76.30;;;;;;6135685;23;20411;-90
2021/08/01 08:58:29;;;;;;;2.20;2.00;;;22.50;77.50;;;;;;6140877;23;20430;-89
2021/08/01 09:00:56;;;;;;;2.40;2.17;;;23.00;77.00;;;;;;6170875;23;20506;-87
2021/08/01 09:03:24;;;;;;;2.90;2.50;;;23.70;74.30;;;;;;6143601;23;20415;-91
2021/08/01 09:05:56;;;;;;;5.70;2.40;;;23.40;72.20;;;;;;6143047;23;20454;-90
2021/08/01 09:08:25;;;;;;;2.63;2.10;;;23.10;73.50;;;;;;6148286;23;20422;-90
2021/08/01 09:10:54;;;;;;;2.70;2.43;;;22.80;74.70;;;;;;6152156;23;20501;-90
2021/08/01 09:13:50;;;;;;;4.57;2.77;;;22.50;76.90;;;;;;6155201;23;20403;-90
2021/08/01 09:16:20;;;;;;;3.33;2.60;;;22.30;79.40;;;;;;6153186;23;20822;-89
2021/08/01 09:18:48;;;;;;;5.43;2.80;;;22.20;79.10;;;;;;6116339;23;20415;-89
2021/08/01 09:21:32;;;;;;;4.47;2.77;;;22.00;79.70;;;;;;6173325;23;20425;-90
2021/08/01 09:24:02;;;;;;;3.90;2.50;;;22.00;81.30;;;;;;6181765;23;20395;-89
2021/08/01 09:26:53;;;;;;;2.80;2.50;;;22.00;81.90;;;;;;6181202;23;20422;-89
2021/08/01 09:29:19;;;;;;;5.77;4.73;;;23.00;81.30;;;;;;6181499;23;20466;-92
2021/08/01 09:31:59;;;;;;;3.70;2.47;;;23.60;76.80;;;;;;6180749;23;20434;-90
2021/08/01 09:34:28;;;;;;;3.63;2.50;;;23.20;77.00;;;;;;6168814;23;20407;-89
2021/08/01 09:37:03;;;;;;;5.30;2.20;;;22.80;77.90;;;;;;6173338;23;20449;-91
2021/08/01 09:39:39;;;;;;;2.20;2.00;;;22.40;79.30;;;;;;6178698;23;20455;-89
2021/08/01 09:42:07;;;;;;;2.80;2.20;;;22.50;79.70;;;;;;6177521;23;20434;-90
2021/08/01 09:44:39;;;;;;;2.33;2.00;;;22.50;79.30;;;;;;6175688;23;20422;-88
2021/08/01 09:47:07;;;;;;;3.00;2.27;;;22.40;80.50;;;;;;6180159;23;20489;-89
2021/08/01 09:49:33;;;;;;;3.23;2.43;;;22.30;81.20;;;;;;6177679;23;20439;-89
2021/08/01 09:52:03;;;;;;;2.80;2.20;;;22.20;81.60;;;;;;6177486;23;20457;-88
2021/08/01 09:54:47;;;;;;;2.63;2.10;;;22.20;81.90;;;;;;6167125;23;20417;-89
2021/08/01 09:57:18;;;;;;;2.27;2.10;;;22.80;80.80;;;;;;6164319;23;20415;-88
2021/08/01 10:00:04;;;;;;;3.80;2.10;;;24.20;76.20;;;;;;6171105;23;20427;-89
2021/08/01 10:02:39;;;;;;;4.43;1.80;;;25.40;71.00;;;;;;6179631;23;20494;-90
2021/08/01 10:05:25;;;;;;;2.40;1.97;;;25.40;68.70;;;;;;6181310;23;20571;-89
2021/08/01 10:07:53;;;;;;;3.10;2.20;;;25.00;69.00;;;;;;6179999;23;20426;-89
2021/08/01 10:10:20;;;;;;;2.33;2.07;;;24.50;70.50;;;;;;6179401;23;20447;-89
2021/08/01 10:12:52;;;;;;;2.47;2.27;;;24.50;71.20;;;;;;6170343;23;20423;-88
2021/08/01 10:15:20;;;;;;;2.40;2.20;;;24.30;71.50;;;;;;6159765;23;20733;-87
2021/08/01 10:17:48;;;;;;;5.77;2.30;;;25.10;70.00;;;;;;6160620;23;20411;-88
2021/08/01 10:20:15;;;;;;;3.07;2.17;;;26.00;65.40;;;;;;6159818;23;20439;-89
2021/08/01 10:22:44;;;;;;;1.77;1.53;;;25.90;63.50;;;;;;6160514;23;20437;-89
2021/08/01 10:25:29;;;;;;;2.10;1.90;;;25.70;65.20;;;;;;6160200;23;20494;-89
2021/08/01 10:28:00;;;;;;;3.10;2.10;;;26.10;62.00;;;;;;6159992;23;20501;-89
2021/08/01 10:30:30;;;;;;;1.90;1.80;;;25.90;60.60;;;;;;6168100;23;20439;-89
2021/08/01 10:33:05;;;;;;;2.10;1.80;;;26.50;59.40;;;;;;6178692;23;20414;-90
2021/08/01 10:35:36;;;;;;;2.20;2.00;;;26.90;58.00;;;;;;6162504;23;20413;-89
2021/08/01 10:38:11;;;;;;;2.00;1.67;;;26.90;57.90;;;;;;6159434;23;20409;-89
2021/08/01 10:40:39;;;;;;;3.80;2.20;;;27.00;57.10;;;;;;6158819;23;20423;-90
2021/08/01 10:43:12;;;;;;;4.60;2.80;;;27.40;56.90;;;;;;6158326;23;20519;-89
2021/08/01 10:45:43;;;;;;;2.57;1.80;;;28.20;55.60;;;;;;6158546;23;20384;-89
2021/08/01 10:48:11;;;;;;;4.23;2.50;;;28.30;54.20;;;;;;6159129;23;20451;-89
2021/08/01 10:50:41;;;;;;;2.13;1.93;;;28.30;54.10;;;;;;6159131;23;20450;-89
2021/08/01 10:53:25;;;;;;;3.20;1.90;;;28.00;54.70;;;;;;6161155;23;20991;-89
2021/08/01 10:56:13;;;;;;;2.37;2.17;;;27.20;55.30;;;;;;6161315;23;20458;-89
2021/08/01 10:58:40;;;;;;;2.47;2.20;;;26.80;56.70;;;;;;6161671;23;20411;-88
2021/08/01 11:01:09;;;;;;;2.57;2.10;;;26.40;57.10;;;;;;6162186;23;20418;-90
2021/08/01 11:03:39;;;;;;;2.50;1.80;;;26.40;57.00;;;;;;6164955;23;20438;-88
2021/08/01 11:06:35;;;;;;;3.43;2.10;;;26.90;56.00;;;;;;6176343;23;20406;-90
2021/08/01 11:09:12;;;;;;;2.10;1.90;;;27.70;54.40;;;;;;6181154;23;20437;-88
2021/08/01 11:11:44;;;;;;;1.83;1.60;;;28.70;52.50;;;;;;6177537;23;20450;-88
2021/08/01 11:14:48;;;;;;;2.00;1.83;;;28.30;51.30;;;;;;6167359;23;20403;-88
2021/08/01 11:17:17;;;;;;;2.33;2.13;;;28.00;52.70;;;;;;6163242;23;20434;-88
2021/08/01 11:19:45;;;;;;;1.93;1.47;;;28.00;51.60;;;;;;6169815;23;20808;-89
2021/08/01 11:22:43;;;;;;;2.30;1.53;;;27.90;50.70;;;;;;6162752;23;20508;-88
2021/08/01 11:25:26;;;;;;;2.40;1.90;;;28.10;51.80;;;;;;6161897;23;20543;-89
2021/08/01 11:28:08;;;;;;;3.20;2.33;;;27.50;53.50;;;;;;6160093;23;20415;-88
2021/08/01 11:33:36;;;;;;;3.27;2.00;;;26.20;55.50;;;;;;6162551;23;20498;-90
2021/08/01 11:36:12;;;;;;;2.80;2.60;;;26.20;56.70;;;;;;6160318;23;20494;-89
2021/08/01 11:39:00;;;;;;;2.37;1.80;;;26.30;56.70;;;;;;6161327;23;20411;-89
2021/08/01 11:41:39;;;;;;;2.60;2.40;;;26.30;57.00;;;;;;6158543;23;20399;-88
2021/08/01 11:44:21;;;;;;;3.37;2.27;;;26.60;57.00;;;;;;6162863;23;20422;-89
2021/08/01 11:46:59;;;;;;;3.30;2.30;;;26.80;56.80;;;;;;6160716;23;20487;-88
2021/08/01 11:49:34;;;;;;;2.73;2.53;;;26.40;56.90;;;;;;6159390;23;20507;-88
2021/08/01 11:52:06;;;;;;;2.60;2.40;;;26.00;58.10;;;;;;6161568;23;20442;-89
2021/08/01 11:54:36;;;;;;;3.43;2.17;;;25.90;58.80;;;;;;6159638;23;20922;-90
2021/08/01 11:57:09;;;;;;;2.13;2.03;;;25.50;59.30;;;;;;6158492;23;20415;-89
2021/08/01 11:59:36;;;;;;;1.77;1.63;;;25.30;59.10;;;;;;6161094;23;20525;-89
2021/08/01 12:02:11;;;;;;;2.30;2.20;;;25.10;59.20;;;;;;6165597;23;20721;-88
2021/08/01 12:04:50;;;;;;;3.87;2.70;;;24.90;59.30;;;;;;6164882;23;20402;-89
2021/08/01 12:07:17;;;;;;;2.77;2.57;;;24.90;60.20;;;;;;6160673;23;20497;-89
2021/08/01 12:09:44;;;;;;;3.40;3.07;;;25.00;60.30;;;;;;6161188;23;20434;-89
2021/08/01 12:12:12;;;;;;;2.80;2.27;;;24.80;61.60;;;;;;6160893;23;20438;-88
2021/08/01 12:14:41;;;;;;;2.77;2.57;;;24.60;62.80;;;;;;6160513;23;20410;-89
2021/08/01 12:17:10;;;;;;;3.13;2.60;;;24.80;63.20;;;;;;6159431;23;20415;-89
2021/08/01 12:19:39;;;;;;;2.37;2.17;;;24.90;63.60;;;;;;6160770;23;20439;-88
2021/08/01 12:22:18;;;;;;;2.50;2.23;;;25.20;63.10;;;;;;6135411;23;20482;-89
2021/08/01 12:24:56;;;;;;;2.53;2.33;;;25.20;62.30;;;;;;6173714;23;20372;-90
2021/08/01 12:27:29;;;;;;;2.40;2.00;;;25.50;62.20;;;;;;6149875;23;20411;-89
2021/08/01 12:30:03;;;;;;;3.50;2.53;;;25.50;61.40;;;;;;6149831;23;20430;-90
2021/08/01 12:32:38;;;;;;;2.60;2.40;;;25.40;61.70;;;;;;6175489;23;20450;-89
2021/08/01 12:35:19;;;;;;;2.50;2.30;;;25.40;62.00;;;;;;6147999;23;20417;-90
2021/08/01 12:38:00;;;;;;;2.60;2.40;;;25.20;61.50;;;;;;6174747;23;20435;-90
2021/08/01 12:40:44;;;;;;;2.80;2.60;;;24.90;61.70;;;;;;6156831;23;20486;-89
2021/08/01 12:43:14;;;;;;;3.17;2.87;;;24.80;62.90;;;;;;6168958;23;20410;-88
2021/08/01 12:45:46;;;;;;;2.90;2.70;;;25.00;63.20;;;;;;6137938;23;20862;-87
2021/08/01 12:48:26;;;;;;;2.70;2.10;;;25.20;62.90;;;;;;6137218;23;20481;-89
2021/08/01 12:50:55;;;;;;;2.73;2.50;;;25.70;61.90;;;;;;6135855;23;20783;-90
2021/08/01 12:53:24;;;;;;;2.30;2.10;;;26.00;60.80;;;;;;6161081;23;20906;-90
2021/08/01 12:55:54;;;;;;;2.50;2.30;;;27.00;58.60;;;;;;6160082;23;20399;-89
2021/08/01 12:58:31;;;;;;;3.27;2.43;;;26.60;58.50;;;;;;6134936;23;20414;-89
2021/08/01 13:01:03;;;;;;;3.03;2.67;;;26.00;59.30;;;;;;6160375;23;20469;-89
2021/08/01 13:03:37;;;;;;;3.40;2.57;;;25.60;60.30;;;;;;6132485;23;20442;-90
2021/08/01 13:06:05;;;;;;;3.97;2.80;;;25.50;61.20;;;;;;6134555;23;20419;-89
2021/08/01 13:08:37;;;;;;;5.90;2.90;;;25.20;69.30;;;;;;6162191;23;20415;-88
2021/08/01 13:11:05;;;;;;;4.10;2.90;;;24.80;70.70;;;;;;6136077;23;20447;-89
2021/08/01 13:13:32;;;;;;;3.20;2.70;;;24.40;71.20;;;;;;6134539;23;20479;-89
2021/08/01 13:16:02;;;;;;;2.80;2.60;;;24.00;73.20;;;;;;6144355;23;20435;-89
2021/08/01 13:18:34;;;;;;;4.00;3.20;;;24.00;75.40;;;;;;6138572;23;21044;-90
2021/08/01 13:21:17;;;;;;;3.47;2.80;;;24.10;74.40;;;;;;6155693;23;20525;-88
2021/08/01 13:23:46;;;;;;;2.90;2.70;;;24.20;74.30;;;;;;6162578;23;20882;-89
2021/08/01 13:26:31;;;;;;;4.93;3.07;;;24.20;72.50;;;;;;6158811;23;20415;-88
2021/08/01 13:29:03;;;;;;;3.47;2.50;;;24.30;72.40;;;;;;6159364;23;20411;-89
2021/08/01 13:31:36;;;;;;;4.33;3.17;;;24.50;72.20;;;;;;6159534;23;20834;-89
2021/08/01 13:34:05;;;;;;;3.87;3.10;;;24.70;72.70;;;;;;6159030;23;20759;-89
2021/08/01 13:37:02;;;;;;;4.53;2.90;;;24.60;72.60;;;;;;6158230;23;20482;-88
2021/08/01 13:39:30;;;;;;;2.90;2.70;;;24.70;72.30;;;;;;6160619;23;20435;-89
2021/08/01 13:42:09;;;;;;;3.20;2.60;;;24.60;71.60;;;;;;6164531;23;20490;-89
2021/08/01 13:45:01;;;;;;;2.27;2.17;;;24.90;71.40;;;;;;6177451;23;20386;-89
2021/08/01 13:47:32;;;;;;;2.40;2.20;;;25.10;67.90;;;;;;6150988;23;20430;-88